sensor_id;sensor_type;location;lat;lon;timestamp;P1;durP1;ratioP1;P2;durP2;ratioP2
42282;SDS011;28237;47.954;21.730;2022-08-05T00:00:31;1.73;;;1.50;;
42282;SDS011;28237;47.954;21.730;2022-08-05T00:02:56;2.73;;;1.20;;
42282;SDS011;28237;47.954;21.730;2022-08-05T00:05:21;3.97;;;1.77;;
42282;SDS011;28237;47.954;21.730;2022-08-05T00:07:47;5.40;;;1.67;;
42282;SDS011;28237;47.954;21.730;2022-08-05T00:10:12;1.50;;;1.40;;
42282;SDS011;28237;47.954;21.730;2022-08-05T00:12:37;4.57;;;1.63;;
42282;SDS011;28237;47.954;21.730;2022-08-05T00:15:03;4.85;;;1.15;;
42282;SDS011;28237;47.954;21.730;2022-08-05T00:17:29;1.70;;;0.95;;
42282;SDS011;28237;47.954;21.730;2022-08-05T00:19:54;2.43;;;1.20;;
42282;SDS011;28237;47.954;21.730;2022-08-05T00:22:19;4.30;;;1.30;;
42282;SDS011;28237;47.954;21.730;2022-08-05T00:24:45;1.90;;;1.30;;
42282;SDS011;28237;47.954;21.730;2022-08-05T00:27:10;1.43;;;1.33;;
42282;SDS011;28237;47.954;21.730;2022-08-05T00:29:35;1.17;;;0.93;;
42282;SDS011;28237;47.954;21.730;2022-08-05T00:32:00;1.17;;;1.07;;
42282;SDS011;28237;47.954;21.730;2022-08-05T00:34:27;4.43;;;1.27;;
42282;SDS011;28237;47.954;21.730;2022-08-05T00:36:53;2.50;;;1.08;;
42282;SDS011;28237;47.954;21.730;2022-08-05T00:39:18;4.07;;;1.30;;
42282;SDS011;28237;47.954;21.730;2022-08-05T00:41:44;2.43;;;1.07;;
42282;SDS011;28237;47.954;21.730;2022-08-05T00:44:10;2.90;;;1.38;;
42282;SDS011;28237;47.954;21.730;2022-08-05T00:46:35;5.05;;;1.10;;
42282;SDS011;28237;47.954;21.730;2022-08-05T00:49:00;1.30;;;1.20;;
42282;SDS011;28237;47.954;21.730;2022-08-05T00:51:25;1.37;;;1.27;;
42282;SDS011;28237;47.954;21.730;2022-08-05T00:53:51;2.63;;;1.40;;
42282;SDS011;28237;47.954;21.730;2022-08-05T00:56:16;1.33;;;1.23;;
42282;SDS011;28237;47.954;21.730;2022-08-05T00:58:42;1.50;;;1.40;;
42282;SDS011;28237;47.954;21.730;2022-08-05T01:01:08;1.83;;;1.30;;
42282;SDS011;28237;47.954;21.730;2022-08-05T01:03:33;1.67;;;1.38;;
42282;SDS011;28237;47.954;21.730;2022-08-05T01:05:58;1.57;;;1.10;;
42282;SDS011;28237;47.954;21.730;2022-08-05T01:08:24;2.93;;;1.40;;
42282;SDS011;28237;47.954;21.730;2022-08-05T01:10:56;2.13;;;0.80;;
42282;SDS011;28237;47.954;21.730;2022-08-05T01:13:29;3.45;;;1.17;;
42282;SDS011;28237;47.954;21.730;2022-08-05T01:15:57;1.63;;;1.23;;
42282;SDS011;28237;47.954;21.730;2022-08-05T01:18:24;2.63;;;1.10;;
42282;SDS011;28237;47.954;21.730;2022-08-05T01:20:59;1.80;;;1.20;;
42282;SDS011;28237;47.954;21.730;2022-08-05T01:26:17;1.83;;;1.67;;
42282;SDS011;28237;47.954;21.730;2022-08-05T01:28:46;3.30;;;1.40;;
42282;SDS011;28237;47.954;21.730;2022-08-05T01:31:16;1.50;;;1.40;;
42282;SDS011;28237;47.954;21.730;2022-08-05T01:33:47;1.40;;;1.30;;
42282;SDS011;28237;47.954;21.730;2022-08-05T01:36:14;2.20;;;1.52;;
42282;SDS011;28237;47.954;21.730;2022-08-05T01:38:40;1.13;;;0.90;;
42282;SDS011;28237;47.954;21.730;2022-08-05T01:41:06;2.65;;;1.50;;
42282;SDS011;28237;47.954;21.730;2022-08-05T01:43:32;1.20;;;1.10;;
42282;SDS011;28237;47.954;21.730;2022-08-05T01:45:58;1.35;;;1.25;;
42282;SDS011;28237;47.954;21.730;2022-08-05T01:48:25;3.03;;;1.40;;
42282;SDS011;28237;47.954;21.730;2022-08-05T01:50:51;1.58;;;1.35;;
42282;SDS011;28237;47.954;21.730;2022-08-05T01:53:16;3.10;;;1.52;;
42282;SDS011;28237;47.954;21.730;2022-08-05T01:55:45;2.53;;;1.45;;
42282;SDS011;28237;47.954;21.730;2022-08-05T01:58:11;1.52;;;1.42;;
42282;SDS011;28237;47.954;21.730;2022-08-05T02:00:38;1.70;;;1.40;;
42282;SDS011;28237;47.954;21.730;2022-08-05T02:03:26;1.83;;;1.45;;
42282;SDS011;28237;47.954;21.730;2022-08-05T02:05:53;2.08;;;1.55;;
42282;SDS011;28237;47.954;21.730;2022-08-05T02:08:18;2.35;;;1.60;;
42282;SDS011;28237;47.954;21.730;2022-08-05T02:10:47;4.55;;;1.65;;
42282;SDS011;28237;47.954;21.730;2022-08-05T02:13:14;1.70;;;1.60;;
42282;SDS011;28237;47.954;21.730;2022-08-05T02:15:43;2.22;;;1.55;;
42282;SDS011;28237;47.954;21.730;2022-08-05T02:18:10;5.05;;;1.75;;
42282;SDS011;28237;47.954;21.730;2022-08-05T02:20:58;2.22;;;1.38;;
42282;SDS011;28237;47.954;21.730;2022-08-05T02:23:21;2.00;;;1.42;;
42282;SDS011;28237;47.954;21.730;2022-08-05T02:25:47;4.10;;;1.30;;
42282;SDS011;28237;47.954;21.730;2022-08-05T02:28:13;3.50;;;1.50;;
42282;SDS011;28237;47.954;21.730;2022-08-05T02:30:44;2.85;;;1.42;;
42282;SDS011;28237;47.954;21.730;2022-08-05T02:33:10;3.10;;;2.08;;
42282;SDS011;28237;47.954;21.730;2022-08-05T02:35:38;3.42;;;1.30;;
42282;SDS011;28237;47.954;21.730;2022-08-05T02:38:04;1.48;;;1.38;;
42282;SDS011;28237;47.954;21.730;2022-08-05T02:40:30;1.73;;;1.60;;
42282;SDS011;28237;47.954;21.730;2022-08-05T02:42:56;3.20;;;1.45;;
42282;SDS011;28237;47.954;21.730;2022-08-05T02:45:22;2.47;;;1.58;;
42282;SDS011;28237;47.954;21.730;2022-08-05T02:47:49;1.85;;;1.75;;
42282;SDS011;28237;47.954;21.730;2022-08-05T02:50:15;3.55;;;1.20;;
42282;SDS011;28237;47.954;21.730;2022-08-05T02:52:41;2.92;;;1.80;;
42282;SDS011;28237;47.954;21.730;2022-08-05T02:55:08;2.42;;;1.55;;
42282;SDS011;28237;47.954;21.730;2022-08-05T02:57:34;2.00;;;1.77;;
42282;SDS011;28237;47.954;21.730;2022-08-05T02:59:59;3.40;;;1.65;;
42282;SDS011;28237;47.954;21.730;2022-08-05T03:02:26;1.83;;;1.70;;
42282;SDS011;28237;47.954;21.730;2022-08-05T03:04:52;2.10;;;1.88;;
42282;SDS011;28237;47.954;21.730;2022-08-05T03:07:18;2.33;;;1.50;;
42282;SDS011;28237;47.954;21.730;2022-08-05T03:09:44;4.03;;;1.77;;
42282;SDS011;28237;47.954;21.730;2022-08-05T03:12:09;4.45;;;1.67;;
42282;SDS011;28237;47.954;21.730;2022-08-05T03:14:52;3.75;;;1.50;;
42282;SDS011;28237;47.954;21.730;2022-08-05T03:17:18;3.17;;;1.97;;
42282;SDS011;28237;47.954;21.730;2022-08-05T03:19:43;1.63;;;1.53;;
42282;SDS011;28237;47.954;21.730;2022-08-05T03:22:08;1.70;;;1.40;;
42282;SDS011;28237;47.954;21.730;2022-08-05T03:24:33;3.50;;;2.03;;
42282;SDS011;28237;47.954;21.730;2022-08-05T03:26:59;2.10;;;1.67;;
42282;SDS011;28237;47.954;21.730;2022-08-05T03:29:24;4.35;;;1.48;;
42282;SDS011;28237;47.954;21.730;2022-08-05T03:31:50;3.22;;;1.92;;
42282;SDS011;28237;47.954;21.730;2022-08-05T03:34:15;1.90;;;1.80;;
42282;SDS011;28237;47.954;21.730;2022-08-05T03:36:40;2.60;;;1.90;;
42282;SDS011;28237;47.954;21.730;2022-08-05T03:39:06;5.43;;;1.75;;
42282;SDS011;28237;47.954;21.730;2022-08-05T03:41:32;2.72;;;1.52;;
42282;SDS011;28237;47.954;21.730;2022-08-05T03:43:58;3.03;;;1.80;;
42282;SDS011;28237;47.954;21.730;2022-08-05T03:46:23;4.43;;;1.83;;
42282;SDS011;28237;47.954;21.730;2022-08-05T03:48:48;2.42;;;2.13;;
42282;SDS011;28237;47.954;21.730;2022-08-05T03:56:11;5.55;;;1.60;;
42282;SDS011;28237;47.954;21.730;2022-08-05T03:58:39;1.80;;;1.70;;
42282;SDS011;28237;47.954;21.730;2022-08-05T04:01:06;1.73;;;1.63;;
42282;SDS011;28237;47.954;21.730;2022-08-05T04:03:33;10.85;;;1.88;;
42282;SDS011;28237;47.954;21.730;2022-08-05T04:06:00;3.90;;;2.08;;
42282;SDS011;28237;47.954;21.730;2022-08-05T04:08:25;3.97;;;1.55;;
42282;SDS011;28237;47.954;21.730;2022-08-05T04:10:51;3.47;;;2.05;;
42282;SDS011;28237;47.954;21.730;2022-08-05T04:13:16;3.30;;;1.90;;
42282;SDS011;28237;47.954;21.730;2022-08-05T04:15:42;2.20;;;1.63;;
42282;SDS011;28237;47.954;21.730;2022-08-05T04:18:07;2.85;;;1.85;;
42282;SDS011;28237;47.954;21.730;2022-08-05T04:20:33;3.35;;;2.08;;
42282;SDS011;28237;47.954;21.730;2022-08-05T04:22:58;1.85;;;1.75;;
42282;SDS011;28237;47.954;21.730;2022-08-05T04:25:23;2.73;;;2.00;;
42282;SDS011;28237;47.954;21.730;2022-08-05T04:27:48;2.37;;;2.10;;
42282;SDS011;28237;47.954;21.730;2022-08-05T04:30:14;2.47;;;2.00;;
42282;SDS011;28237;47.954;21.730;2022-08-05T04:32:39;2.50;;;1.77;;
42282;SDS011;28237;47.954;21.730;2022-08-05T04:35:05;2.73;;;1.87;;
42282;SDS011;28237;47.954;21.730;2022-08-05T04:37:30;2.95;;;1.95;;
42282;SDS011;28237;47.954;21.730;2022-08-05T04:39:57;3.72;;;2.22;;
42282;SDS011;28237;47.954;21.730;2022-08-05T04:42:22;2.70;;;1.70;;
42282;SDS011;28237;47.954;21.730;2022-08-05T04:44:47;2.42;;;1.58;;
42282;SDS011;28237;47.954;21.730;2022-08-05T04:47:12;4.83;;;1.80;;
42282;SDS011;28237;47.954;21.730;2022-08-05T04:49:38;3.40;;;1.33;;
42282;SDS011;28237;47.954;21.730;2022-08-05T04:52:03;2.75;;;2.03;;
42282;SDS011;28237;47.954;21.730;2022-08-05T04:54:28;1.98;;;1.80;;
42282;SDS011;28237;47.954;21.730;2022-08-05T04:56:54;3.17;;;1.53;;
42282;SDS011;28237;47.954;21.730;2022-08-05T04:59:19;2.80;;;2.22;;
42282;SDS011;28237;47.954;21.730;2022-08-05T05:01:46;2.22;;;1.80;;
42282;SDS011;28237;47.954;21.730;2022-08-05T05:04:11;3.57;;;2.10;;
42282;SDS011;28237;47.954;21.730;2022-08-05T05:06:36;2.13;;;2.03;;
42282;SDS011;28237;47.954;21.730;2022-08-05T05:09:02;4.38;;;2.05;;
42282;SDS011;28237;47.954;21.730;2022-08-05T05:11:27;1.73;;;1.60;;
42282;SDS011;28237;47.954;21.730;2022-08-05T05:13:52;2.50;;;1.85;;
42282;SDS011;28237;47.954;21.730;2022-08-05T05:16:18;1.97;;;1.87;;
42282;SDS011;28237;47.954;21.730;2022-08-05T05:18:43;2.30;;;1.67;;
42282;SDS011;28237;47.954;21.730;2022-08-05T05:21:08;1.87;;;1.53;;
42282;SDS011;28237;47.954;21.730;2022-08-05T05:23:34;5.32;;;2.10;;
42282;SDS011;28237;47.954;21.730;2022-08-05T05:25:59;2.40;;;2.17;;
42282;SDS011;28237;47.954;21.730;2022-08-05T05:28:24;2.17;;;2.00;;
42282;SDS011;28237;47.954;21.730;2022-08-05T05:30:50;2.10;;;1.90;;
42282;SDS011;28237;47.954;21.730;2022-08-05T05:33:15;3.88;;;2.20;;
42282;SDS011;28237;47.954;21.730;2022-08-05T05:35:40;7.37;;;2.97;;
42282;SDS011;28237;47.954;21.730;2022-08-05T05:38:06;3.20;;;2.47;;
42282;SDS011;28237;47.954;21.730;2022-08-05T05:40:32;4.18;;;2.58;;
42282;SDS011;28237;47.954;21.730;2022-08-05T05:42:58;2.78;;;2.45;;
42282;SDS011;28237;47.954;21.730;2022-08-05T05:45:23;2.70;;;2.50;;
42282;SDS011;28237;47.954;21.730;2022-08-05T05:47:48;4.07;;;3.03;;
42282;SDS011;28237;47.954;21.730;2022-08-05T05:50:14;4.07;;;2.60;;
42282;SDS011;28237;47.954;21.730;2022-08-05T05:52:40;3.10;;;2.42;;
42282;SDS011;28237;47.954;21.730;2022-08-05T05:55:07;3.42;;;2.67;;
42282;SDS011;28237;47.954;21.730;2022-08-05T05:57:36;1.90;;;1.80;;
42282;SDS011;28237;47.954;21.730;2022-08-05T06:00:03;3.65;;;3.05;;
42282;SDS011;28237;47.954;21.730;2022-08-05T06:02:28;2.78;;;2.50;;
42282;SDS011;28237;47.954;21.730;2022-08-05T06:04:53;3.00;;;2.80;;
42282;SDS011;28237;47.954;21.730;2022-08-05T06:07:19;4.90;;;3.53;;
42282;SDS011;28237;47.954;21.730;2022-08-05T06:09:44;3.10;;;2.90;;
42282;SDS011;28237;47.954;21.730;2022-08-05T06:12:09;3.20;;;2.60;;
42282;SDS011;28237;47.954;21.730;2022-08-05T06:14:34;2.83;;;2.47;;
42282;SDS011;28237;47.954;21.730;2022-08-05T06:17:00;3.13;;;2.80;;
42282;SDS011;28237;47.954;21.730;2022-08-05T06:19:25;3.08;;;2.83;;
42282;SDS011;28237;47.954;21.730;2022-08-05T06:21:51;2.65;;;2.45;;
42282;SDS011;28237;47.954;21.730;2022-08-05T06:24:16;3.47;;;3.13;;
42282;SDS011;28237;47.954;21.730;2022-08-05T06:26:41;3.05;;;2.85;;
42282;SDS011;28237;47.954;21.730;2022-08-05T06:29:07;5.38;;;2.60;;
42282;SDS011;28237;47.954;21.730;2022-08-05T06:31:32;4.17;;;2.70;;
42282;SDS011;28237;47.954;21.730;2022-08-05T06:33:57;3.10;;;2.80;;
42282;SDS011;28237;47.954;21.730;2022-08-05T06:36:23;2.92;;;2.72;;
42282;SDS011;28237;47.954;21.730;2022-08-05T06:38:48;4.23;;;2.10;;
42282;SDS011;28237;47.954;21.730;2022-08-05T06:41:17;3.40;;;2.90;;
42282;SDS011;28237;47.954;21.730;2022-08-05T06:43:43;2.97;;;2.67;;
42282;SDS011;28237;47.954;21.730;2022-08-05T06:46:08;3.63;;;3.03;;
42282;SDS011;28237;47.954;21.730;2022-08-05T06:48:34;2.93;;;2.73;;
42282;SDS011;28237;47.954;21.730;2022-08-05T06:50:59;3.45;;;2.88;;
42282;SDS011;28237;47.954;21.730;2022-08-05T06:53:25;6.00;;;3.00;;
42282;SDS011;28237;47.954;21.730;2022-08-05T06:55:50;7.63;;;2.67;;
42282;SDS011;28237;47.954;21.730;2022-08-05T06:58:15;5.47;;;2.70;;
42282;SDS011;28237;47.954;21.730;2022-08-05T07:00:40;3.40;;;2.83;;
42282;SDS011;28237;47.954;21.730;2022-08-05T07:03:06;2.90;;;2.10;;
42282;SDS011;28237;47.954;21.730;2022-08-05T07:05:31;2.57;;;2.37;;
42282;SDS011;28237;47.954;21.730;2022-08-05T07:07:56;2.50;;;1.80;;
42282;SDS011;28237;47.954;21.730;2022-08-05T07:10:21;2.60;;;2.37;;
42282;SDS011;28237;47.954;21.730;2022-08-05T07:12:49;2.10;;;2.00;;
42282;SDS011;28237;47.954;21.730;2022-08-05T07:15:33;2.83;;;2.30;;
42282;SDS011;28237;47.954;21.730;2022-08-05T07:20:43;3.60;;;2.97;;
42282;SDS011;28237;47.954;21.730;2022-08-05T07:23:08;2.90;;;2.60;;
42282;SDS011;28237;47.954;21.730;2022-08-05T07:25:33;4.10;;;3.43;;
42282;SDS011;28237;47.954;21.730;2022-08-05T07:27:58;6.03;;;4.23;;
42282;SDS011;28237;47.954;21.730;2022-08-05T07:30:24;3.10;;;2.90;;
42282;SDS011;28237;47.954;21.730;2022-08-05T07:32:49;2.47;;;2.27;;
42282;SDS011;28237;47.954;21.730;2022-08-05T07:35:14;6.73;;;6.13;;
42282;SDS011;28237;47.954;21.730;2022-08-05T07:37:40;3.20;;;2.97;;
42282;SDS011;28237;47.954;21.730;2022-08-05T07:40:05;2.25;;;2.13;;
42282;SDS011;28237;47.954;21.730;2022-08-05T07:42:31;2.35;;;2.08;;
42282;SDS011;28237;47.954;21.730;2022-08-05T07:44:56;2.75;;;2.03;;
42282;SDS011;28237;47.954;21.730;2022-08-05T07:47:22;5.27;;;2.10;;
42282;SDS011;28237;47.954;21.730;2022-08-05T07:49:47;4.85;;;2.30;;
42282;SDS011;28237;47.954;21.730;2022-08-05T07:52:16;2.90;;;2.05;;
42282;SDS011;28237;47.954;21.730;2022-08-05T07:54:41;4.30;;;2.13;;
42282;SDS011;28237;47.954;21.730;2022-08-05T07:57:06;2.87;;;2.33;;
42282;SDS011;28237;47.954;21.730;2022-08-05T07:59:31;3.07;;;2.40;;
42282;SDS011;28237;47.954;21.730;2022-08-05T08:01:57;7.53;;;2.17;;
42282;SDS011;28237;47.954;21.730;2022-08-05T08:04:22;1.57;;;1.47;;
42282;SDS011;28237;47.954;21.730;2022-08-05T08:06:47;2.20;;;1.93;;
42282;SDS011;28237;47.954;21.730;2022-08-05T08:09:12;2.50;;;2.00;;
42282;SDS011;28237;47.954;21.730;2022-08-05T08:11:38;2.45;;;2.25;;
42282;SDS011;28237;47.954;21.730;2022-08-05T08:14:03;6.40;;;2.00;;
42282;SDS011;28237;47.954;21.730;2022-08-05T08:16:28;1.87;;;1.77;;
42282;SDS011;28237;47.954;21.730;2022-08-05T08:18:54;3.88;;;2.35;;
42282;SDS011;28237;47.954;21.730;2022-08-05T08:21:19;2.28;;;1.95;;
42282;SDS011;28237;47.954;21.730;2022-08-05T08:23:45;3.10;;;2.42;;
42282;SDS011;28237;47.954;21.730;2022-08-05T08:26:10;2.93;;;2.20;;
42282;SDS011;28237;47.954;21.730;2022-08-05T08:28:36;2.40;;;2.22;;
42282;SDS011;28237;47.954;21.730;2022-08-05T08:31:01;3.50;;;1.70;;
42282;SDS011;28237;47.954;21.730;2022-08-05T08:33:26;5.83;;;2.10;;
42282;SDS011;28237;47.954;21.730;2022-08-05T08:35:51;3.67;;;2.10;;
42282;SDS011;28237;47.954;21.730;2022-08-05T08:38:16;3.03;;;2.07;;
42282;SDS011;28237;47.954;21.730;2022-08-05T08:40:42;1.48;;;1.38;;
42282;SDS011;28237;47.954;21.730;2022-08-05T08:43:09;2.65;;;2.22;;
42282;SDS011;28237;47.954;21.730;2022-08-05T08:45:35;2.08;;;1.48;;
42282;SDS011;28237;47.954;21.730;2022-08-05T08:48:01;2.10;;;1.90;;
42282;SDS011;28237;47.954;21.730;2022-08-05T08:50:29;2.03;;;1.77;;
42282;SDS011;28237;47.954;21.730;2022-08-05T08:52:55;2.88;;;1.55;;
42282;SDS011;28237;47.954;21.730;2022-08-05T08:55:23;4.03;;;1.45;;
42282;SDS011;28237;47.954;21.730;2022-08-05T08:57:48;2.20;;;1.60;;
42282;SDS011;28237;47.954;21.730;2022-08-05T09:00:14;1.70;;;1.40;;
42282;SDS011;28237;47.954;21.730;2022-08-05T09:02:39;1.98;;;1.60;;
42282;SDS011;28237;47.954;21.730;2022-08-05T09:05:05;4.53;;;1.95;;
42282;SDS011;28237;47.954;21.730;2022-08-05T09:07:30;1.83;;;1.67;;
42282;SDS011;28237;47.954;21.730;2022-08-05T09:09:55;1.37;;;1.23;;
42282;SDS011;28237;47.954;21.730;2022-08-05T09:12:20;3.10;;;2.07;;
42282;SDS011;28237;47.954;21.730;2022-08-05T09:14:46;1.40;;;1.30;;
42282;SDS011;28237;47.954;21.730;2022-08-05T09:17:11;1.27;;;1.17;;
42282;SDS011;28237;47.954;21.730;2022-08-05T09:19:37;1.48;;;1.38;;
42282;SDS011;28237;47.954;21.730;2022-08-05T09:22:02;3.83;;;1.13;;
42282;SDS011;28237;47.954;21.730;2022-08-05T09:24:28;3.72;;;1.60;;
42282;SDS011;28237;47.954;21.730;2022-08-05T09:26:54;2.93;;;1.33;;
42282;SDS011;28237;47.954;21.730;2022-08-05T09:29:20;1.40;;;1.30;;
42282;SDS011;28237;47.954;21.730;2022-08-05T09:32:05;3.40;;;1.20;;
42282;SDS011;28237;47.954;21.730;2022-08-05T09:34:50;2.80;;;1.00;;
42282;SDS011;28237;47.954;21.730;2022-08-05T09:37:23;1.75;;;0.93;;
42282;SDS011;28237;47.954;21.730;2022-08-05T09:39:49;2.07;;;1.10;;
42282;SDS011;28237;47.954;21.730;2022-08-05T09:42:15;1.55;;;1.40;;
42282;SDS011;28237;47.954;21.730;2022-08-05T09:47:10;2.03;;;0.80;;
42282;SDS011;28237;47.954;21.730;2022-08-05T09:49:46;3.38;;;1.35;;
42282;SDS011;28237;47.954;21.730;2022-08-05T09:52:28;1.30;;;0.93;;
42282;SDS011;28237;47.954;21.730;2022-08-05T09:54:58;7.20;;;2.63;;
42282;SDS011;28237;47.954;21.730;2022-08-05T10:00:04;2.58;;;1.23;;
42282;SDS011;28237;47.954;21.730;2022-08-05T10:02:37;1.90;;;0.70;;
42282;SDS011;28237;47.954;21.730;2022-08-05T10:05:07;1.40;;;0.70;;
42282;SDS011;28237;47.954;21.730;2022-08-05T10:10:07;1.58;;;0.93;;
42282;SDS011;28237;47.954;21.730;2022-08-05T10:12:38;2.90;;;1.00;;
42282;SDS011;28237;47.954;21.730;2022-08-05T10:20:33;7.72;;;0.90;;
42282;SDS011;28237;47.954;21.730;2022-08-05T10:22:59;2.17;;;0.85;;
42282;SDS011;28237;47.954;21.730;2022-08-05T10:25:25;0.73;;;0.60;;
42282;SDS011;28237;47.954;21.730;2022-08-05T10:27:50;5.28;;;0.60;;
42282;SDS011;28237;47.954;21.730;2022-08-05T10:30:17;0.40;;;0.30;;
42282;SDS011;28237;47.954;21.730;2022-08-05T10:32:43;2.72;;;0.50;;
42282;SDS011;28237;47.954;21.730;2022-08-05T10:35:09;2.45;;;0.40;;
42282;SDS011;28237;47.954;21.730;2022-08-05T10:37:34;1.00;;;0.47;;
42282;SDS011;28237;47.954;21.730;2022-08-05T10:40:00;0.40;;;0.30;;
42282;SDS011;28237;47.954;21.730;2022-08-05T10:42:28;1.63;;;0.63;;
42282;SDS011;28237;47.954;21.730;2022-08-05T10:44:55;3.10;;;0.70;;
42282;SDS011;28237;47.954;21.730;2022-08-05T10:47:23;1.27;;;0.52;;
42282;SDS011;28237;47.954;21.730;2022-08-05T10:50:07;1.37;;;0.70;;
42282;SDS011;28237;47.954;21.730;2022-08-05T10:52:45;0.90;;;0.70;;
42282;SDS011;28237;47.954;21.730;2022-08-05T10:55:16;1.58;;;0.70;;
42282;SDS011;28237;47.954;21.730;2022-08-05T10:57:42;0.65;;;0.55;;
42282;SDS011;28237;47.954;21.730;2022-08-05T11:02:34;1.75;;;0.60;;
42282;SDS011;28237;47.954;21.730;2022-08-05T11:05:02;1.58;;;0.68;;
42282;SDS011;28237;47.954;21.730;2022-08-05T11:07:28;2.78;;;0.80;;
42282;SDS011;28237;47.954;21.730;2022-08-05T11:09:53;2.00;;;0.97;;
42282;SDS011;28237;47.954;21.730;2022-08-05T11:14:47;2.15;;;0.75;;
42282;SDS011;28237;47.954;21.730;2022-08-05T11:19:51;1.00;;;0.75;;
42282;SDS011;28237;47.954;21.730;2022-08-05T11:27:44;2.78;;;0.57;;
42282;SDS011;28237;47.954;21.730;2022-08-05T11:30:10;0.57;;;0.53;;
42282;SDS011;28237;47.954;21.730;2022-08-05T11:32:35;3.00;;;0.60;;
42282;SDS011;28237;47.954;21.730;2022-08-05T11:35:00;1.90;;;0.43;;
42282;SDS011;28237;47.954;21.730;2022-08-05T11:40:09;1.02;;;0.55;;
42282;SDS011;28237;47.954;21.730;2022-08-05T11:42:35;1.00;;;0.50;;
42282;SDS011;28237;47.954;21.730;2022-08-05T11:45:04;1.25;;;0.57;;
42282;SDS011;28237;47.954;21.730;2022-08-05T11:47:34;4.43;;;0.73;;
42282;SDS011;28237;47.954;21.730;2022-08-05T11:50:00;1.55;;;0.68;;
42282;SDS011;28237;47.954;21.730;2022-08-05T11:52:25;1.10;;;0.40;;
42282;SDS011;28237;47.954;21.730;2022-08-05T11:54:51;1.20;;;0.45;;
42282;SDS011;28237;47.954;21.730;2022-08-05T11:57:17;1.40;;;0.65;;
42282;SDS011;28237;47.954;21.730;2022-08-05T11:59:42;2.50;;;0.47;;
42282;SDS011;28237;47.954;21.730;2022-08-05T12:02:07;2.63;;;1.00;;
42282;SDS011;28237;47.954;21.730;2022-08-05T12:04:40;1.15;;;0.43;;
42282;SDS011;28237;47.954;21.730;2022-08-05T12:07:09;1.15;;;0.68;;
42282;SDS011;28237;47.954;21.730;2022-08-05T12:09:35;0.57;;;0.43;;
42282;SDS011;28237;47.954;21.730;2022-08-05T12:12:01;2.05;;;0.40;;
42282;SDS011;28237;47.954;21.730;2022-08-05T12:14:34;2.05;;;0.47;;
42282;SDS011;28237;47.954;21.730;2022-08-05T12:19:25;0.60;;;0.57;;
42282;SDS011;28237;47.954;21.730;2022-08-05T12:21:50;5.07;;;0.60;;
42282;SDS011;28237;47.954;21.730;2022-08-05T12:24:17;1.63;;;0.80;;
42282;SDS011;28237;47.954;21.730;2022-08-05T12:26:46;2.95;;;0.75;;
42282;SDS011;28237;47.954;21.730;2022-08-05T12:29:14;0.75;;;0.57;;
42282;SDS011;28237;47.954;21.730;2022-08-05T12:31:40;0.90;;;0.73;;
42282;SDS011;28237;47.954;21.730;2022-08-05T12:34:08;1.05;;;0.70;;
42282;SDS011;28237;47.954;21.730;2022-08-05T12:36:34;1.73;;;0.70;;
42282;SDS011;28237;47.954;21.730;2022-08-05T12:39:01;1.15;;;0.63;;
42282;SDS011;28237;47.954;21.730;2022-08-05T12:41:31;0.85;;;0.63;;
42282;SDS011;28237;47.954;21.730;2022-08-05T12:43:57;1.83;;;1.10;;
42282;SDS011;28237;47.954;21.730;2022-08-05T12:46:27;3.22;;;1.15;;
42282;SDS011;28237;47.954;21.730;2022-08-05T12:48:56;1.10;;;1.05;;
42282;SDS011;28237;47.954;21.730;2022-08-05T12:51:21;1.00;;;1.00;;
42282;SDS011;28237;47.954;21.730;2022-08-05T12:53:47;3.28;;;1.10;;
42282;SDS011;28237;47.954;21.730;2022-08-05T12:56:21;2.20;;;0.80;;
42282;SDS011;28237;47.954;21.730;2022-08-05T13:01:31;0.88;;;0.77;;
42282;SDS011;28237;47.954;21.730;2022-08-05T13:03:57;0.70;;;0.60;;
42282;SDS011;28237;47.954;21.730;2022-08-05T13:06:22;0.47;;;0.47;;
42282;SDS011;28237;47.954;21.730;2022-08-05T13:08:49;1.88;;;0.93;;
42282;SDS011;28237;47.954;21.730;2022-08-05T13:11:16;1.27;;;0.63;;
42282;SDS011;28237;47.954;21.730;2022-08-05T13:13:41;1.23;;;0.80;;
42282;SDS011;28237;47.954;21.730;2022-08-05T13:16:12;1.07;;;0.80;;
42282;SDS011;28237;47.954;21.730;2022-08-05T13:18:48;6.55;;;0.95;;
42282;SDS011;28237;47.954;21.730;2022-08-05T13:21:14;0.98;;;0.80;;
42282;SDS011;28237;47.954;21.730;2022-08-05T13:23:39;3.50;;;0.93;;
42282;SDS011;28237;47.954;21.730;2022-08-05T13:26:04;3.03;;;0.93;;
42282;SDS011;28237;47.954;21.730;2022-08-05T13:28:29;1.00;;;0.60;;
42282;SDS011;28237;47.954;21.730;2022-08-05T13:30:55;0.80;;;0.80;;
42282;SDS011;28237;47.954;21.730;2022-08-05T13:33:20;0.93;;;0.93;;
42282;SDS011;28237;47.954;21.730;2022-08-05T13:35:45;1.47;;;0.90;;
42282;SDS011;28237;47.954;21.730;2022-08-05T13:38:11;0.80;;;0.70;;
42282;SDS011;28237;47.954;21.730;2022-08-05T13:40:36;0.98;;;0.68;;
42282;SDS011;28237;47.954;21.730;2022-08-05T13:43:01;0.70;;;0.60;;
42282;SDS011;28237;47.954;21.730;2022-08-05T13:45:26;0.73;;;0.73;;
42282;SDS011;28237;47.954;21.730;2022-08-05T13:47:52;1.80;;;0.70;;
42282;SDS011;28237;47.954;21.730;2022-08-05T13:50:17;1.07;;;0.70;;
42282;SDS011;28237;47.954;21.730;2022-08-05T13:52:42;1.27;;;0.90;;
42282;SDS011;28237;47.954;21.730;2022-08-05T13:55:07;0.50;;;0.43;;
42282;SDS011;28237;47.954;21.730;2022-08-05T13:57:33;0.53;;;0.50;;
42282;SDS011;28237;47.954;21.730;2022-08-05T13:59:58;1.63;;;0.60;;
42282;SDS011;28237;47.954;21.730;2022-08-05T14:02:23;0.87;;;0.47;;
42282;SDS011;28237;47.954;21.730;2022-08-05T14:04:48;0.57;;;0.47;;
42282;SDS011;28237;47.954;21.730;2022-08-05T14:07:33;1.55;;;1.45;;
42282;SDS011;28237;47.954;21.730;2022-08-05T14:09:59;0.43;;;0.43;;
42282;SDS011;28237;47.954;21.730;2022-08-05T14:12:24;0.63;;;0.55;;
42282;SDS011;28237;47.954;21.730;2022-08-05T14:14:50;3.67;;;0.57;;
42282;SDS011;28237;47.954;21.730;2022-08-05T14:17:15;1.15;;;0.60;;
42282;SDS011;28237;47.954;21.730;2022-08-05T14:19:41;1.20;;;0.47;;
42282;SDS011;28237;47.954;21.730;2022-08-05T14:22:07;1.25;;;0.52;;
42282;SDS011;28237;47.954;21.730;2022-08-05T14:24:32;3.63;;;0.63;;
42282;SDS011;28237;47.954;21.730;2022-08-05T14:26:57;1.63;;;0.47;;
42282;SDS011;28237;47.954;21.730;2022-08-05T14:29:22;1.07;;;0.53;;
42282;SDS011;28237;47.954;21.730;2022-08-05T14:31:48;1.63;;;1.00;;
42282;SDS011;28237;47.954;21.730;2022-08-05T14:34:13;2.00;;;0.73;;
42282;SDS011;28237;47.954;21.730;2022-08-05T14:36:38;0.70;;;0.70;;
42282;SDS011;28237;47.954;21.730;2022-08-05T14:39:04;0.67;;;0.60;;
42282;SDS011;28237;47.954;21.730;2022-08-05T14:41:32;0.70;;;0.50;;
42282;SDS011;28237;47.954;21.730;2022-08-05T14:43:58;0.77;;;0.68;;
42282;SDS011;28237;47.954;21.730;2022-08-05T14:46:23;1.00;;;0.90;;
42282;SDS011;28237;47.954;21.730;2022-08-05T14:48:49;1.05;;;0.60;;
42282;SDS011;28237;47.954;21.730;2022-08-05T14:51:14;1.73;;;0.50;;
42282;SDS011;28237;47.954;21.730;2022-08-05T14:53:40;1.60;;;0.75;;
42282;SDS011;28237;47.954;21.730;2022-08-05T14:56:05;1.33;;;0.63;;
42282;SDS011;28237;47.954;21.730;2022-08-05T14:58:30;0.63;;;0.60;;
42282;SDS011;28237;47.954;21.730;2022-08-05T15:00:55;1.43;;;0.60;;
42282;SDS011;28237;47.954;21.730;2022-08-05T15:03:21;1.53;;;1.43;;
42282;SDS011;28237;47.954;21.730;2022-08-05T15:05:46;0.63;;;0.60;;
42282;SDS011;28237;47.954;21.730;2022-08-05T15:08:11;1.13;;;0.80;;
42282;SDS011;28237;47.954;21.730;2022-08-05T15:10:37;3.60;;;0.68;;
42282;SDS011;28237;47.954;21.730;2022-08-05T15:13:02;5.07;;;4.67;;